KFHU/FHU METAR and TAF weather

Enter ICAO airport designator
Station Type Date Time Source
KFHU METAR 2022/12/05 12:55 UTC NOAA

KFHU 051255Z AUTO 00000KT 9SM FEW001 SCT170 SCT200 11/11 A3008 RMK AO2 SLP159 T01090107


Station Type Date Time Source
KFHU Decoded METAR 2022/12/05 12:55 UTC NOAA

Fort Huachuca, Libby AAF Ft Huachuca, AZ, United States (KFHU) 46-98N 110-20W
Dec 05, 2022 - 07:55 AM EST / 2022.12.05 1255 UTC
Wind: Calm:0
Visibility: 9 mile(s):0
Sky conditions: partly cloudy
Temperature: 51.6 F (10.9 C)
Dew Point: 51.3 F (10.7 C)
Relative Humidity: 98%
Pressure (altimeter): 30.08 in. Hg (1018 hPa)
ob: KFHU 051255Z AUTO 00000KT 9SM FEW001 SCT170 SCT200 11/11 A3008 RMK AO2 SLP159 T01090107
cycle: 13

Station Type Date Time Source
KFHU TAF 2022/12/05 06:57 UTC NOAA

TAF KFHU 050600Z 0506/0612 VRB06KT 9999 FEW055 BKN080 BKN200 QNH3010INS
BECMG 0509/0510 VRB04KT 8000 BR FEW004 SCT200 QNH3006INS
TEMPO 0511/0515 1200 BR BKN002
BECMG 0515/0516 20009KT 9999 NSW FEW020 QNH3008INS
BECMG 0519/0520 23012G18KT 9999 NSW SKC 520007 QNH3000INS
BECMG 0600/0601 VRB06KT 9999 SKC QNH3001INS TX20/0521Z TN10/0513Z

Example: see airport list